createdAt,value
2023-04-02T00:01:48.367Z,10.57
2023-04-02T00:04:22.525Z,10.56
2023-04-02T00:06:54.612Z,10.61
2023-04-02T00:09:37.857Z,10.62
2023-04-02T00:12:18.342Z,10.56
2023-04-02T00:14:49.929Z,10.45
2023-04-02T00:17:21.844Z,10.49
2023-04-02T00:19:57.350Z,10.48
2023-04-02T00:22:29.325Z,10.52
2023-04-02T00:25:01.301Z,10.50
2023-04-02T00:27:32.262Z,10.56
2023-04-02T00:30:00.742Z,10.51
2023-04-02T00:32:32.095Z,10.44
2023-04-02T00:35:00.965Z,10.28
2023-04-02T00:37:39.087Z,10.47
2023-04-02T00:40:16.727Z,10.51
2023-04-02T00:42:46.540Z,10.38
2023-04-02T00:45:22.882Z,10.55
2023-04-02T00:47:51.259Z,10.55
2023-04-02T00:50:24.862Z,10.68
2023-04-02T00:52:55.682Z,10.68
2023-04-02T00:55:28.331Z,10.72
2023-04-02T00:57:58.838Z,10.73
2023-04-02T01:00:31.727Z,10.51
2023-04-02T01:03:29.685Z,10.68
2023-04-02T01:06:03.059Z,10.62
2023-04-02T01:08:47.922Z,10.28
2023-04-02T01:11:31.675Z,10.44
2023-04-02T01:14:04.151Z,10.61
2023-04-02T01:16:42.364Z,10.77
2023-04-02T01:19:33.922Z,10.79
2023-04-02T01:22:09.249Z,10.87
2023-04-02T01:24:38.496Z,10.61
2023-04-02T01:27:15.877Z,10.57
2023-04-02T01:29:48.979Z,10.57
2023-04-02T01:32:19.979Z,10.57
2023-04-02T01:34:50.760Z,10.81
2023-04-02T01:37:39.982Z,10.69
2023-04-02T01:40:24.967Z,10.74
2023-04-02T01:43:01.932Z,10.79
2023-04-02T01:45:31.176Z,10.87
2023-04-02T01:47:59.893Z,10.78
2023-04-02T01:50:32.235Z,10.67
2023-04-02T01:53:03.106Z,10.65
2023-04-02T01:55:35.851Z,10.70
2023-04-02T01:58:08.649Z,10.59
2023-04-02T02:00:44.953Z,10.66
2023-04-02T02:03:14.073Z,10.59
2023-04-02T02:05:42.541Z,10.56
2023-04-02T02:08:31.056Z,10.42
2023-04-02T02:10:59.612Z,10.30
2023-04-02T02:13:27.496Z,10.23
2023-04-02T02:15:59.959Z,10.29
2023-04-02T02:18:29.527Z,10.20
2023-04-02T02:21:00.747Z,10.19
2023-04-02T02:23:30.963Z,10.36
2023-04-02T02:25:59.868Z,10.32
2023-04-02T02:28:32.031Z,10.14
2023-04-02T02:31:05.877Z,10.44
2023-04-02T02:33:38.238Z,10.27
2023-04-02T02:36:16.183Z,10.39
2023-04-02T02:38:53.847Z,10.38
2023-04-02T02:41:41.433Z,10.37
2023-04-02T02:44:15.923Z,10.37
2023-04-02T02:46:51.329Z,10.31
2023-04-02T02:49:22.417Z,10.29
2023-04-02T02:51:59.138Z,10.61
2023-04-02T02:54:36.216Z,10.43
2023-04-02T02:57:07.970Z,10.30
2023-04-02T02:59:36.690Z,10.32
2023-04-02T03:02:08.157Z,10.55
2023-04-02T03:04:37.146Z,10.36
2023-04-02T03:07:10.772Z,10.23
2023-04-02T03:09:46.474Z,10.25
2023-04-02T03:12:30.750Z,10.36
2023-04-02T03:15:04.369Z,10.18
2023-04-02T03:17:38.678Z,10.33
2023-04-02T03:20:14.525Z,10.34
2023-04-02T03:22:47.338Z,10.32
2023-04-02T03:25:26.843Z,10.45
2023-04-02T03:28:02.862Z,10.44
2023-04-02T03:30:38.197Z,10.42
2023-04-02T03:33:15.134Z,10.35
2023-04-02T03:35:48.305Z,10.42
2023-04-02T03:38:21.587Z,10.40
2023-04-02T03:41:00.790Z,10.40
2023-04-02T03:43:33.309Z,10.28
2023-04-02T03:46:12.870Z,10.20
2023-04-02T03:48:47.181Z,10.48
2023-04-02T03:51:21.475Z,10.32
2023-04-02T03:53:50.471Z,10.56
2023-04-02T03:56:28.479Z,10.46
2023-04-02T03:59:12.713Z,10.41
2023-04-02T04:01:46.631Z,10.42
2023-04-02T04:04:19.138Z,10.58
2023-04-02T04:06:52.417Z,10.34
2023-04-02T04:09:27.762Z,10.20
2023-04-02T04:12:08.239Z,10.12
2023-04-02T04:14:38.758Z,10.37
2023-04-02T04:17:15.827Z,10.57
2023-04-02T04:19:49.687Z,10.54
2023-04-02T04:22:20.243Z,10.63
2023-04-02T04:24:54.188Z,10.41
2023-04-02T04:27:34.822Z,10.32
2023-04-02T04:30:10.466Z,10.52
2023-04-02T04:32:50.548Z,10.52
2023-04-02T04:35:31.508Z,10.55
2023-04-02T04:38:16.504Z,10.49
2023-04-02T04:40:52.689Z,10.48
2023-04-02T04:43:49.143Z,10.64
2023-04-02T04:46:21.605Z,10.76
2023-04-02T04:48:55.671Z,10.69
2023-04-02T04:51:30.863Z,10.83
2023-04-02T04:53:59.217Z,10.81
2023-04-02T04:56:33.052Z,10.74
2023-04-02T04:59:20.573Z,10.83
2023-04-02T05:01:56.794Z,10.86
2023-04-02T05:04:27.912Z,10.64
2023-04-02T05:07:04.403Z,10.65
2023-04-02T05:09:37.743Z,10.73
2023-04-02T05:12:18.568Z,10.76
2023-04-02T05:14:53.030Z,10.88
2023-04-02T05:17:29.208Z,10.92
2023-04-02T05:20:04.912Z,10.78
2023-04-02T05:22:43.462Z,10.92
2023-04-02T05:25:20.303Z,11.03
2023-04-02T05:27:55.767Z,10.95
2023-04-02T05:30:46.763Z,10.80
2023-04-02T05:33:23.336Z,10.49
2023-04-02T05:36:00.291Z,10.59
2023-04-02T05:38:33.765Z,10.68
2023-04-02T05:41:04.951Z,10.64
2023-04-02T05:43:35.633Z,10.45
2023-04-02T05:46:22.679Z,10.59
2023-04-02T05:48:56.467Z,10.62
2023-04-02T05:51:30.457Z,10.74
2023-04-02T05:54:02.895Z,10.78
2023-04-02T05:56:36.512Z,10.76
2023-04-02T05:59:10.581Z,10.68
2023-04-02T06:01:45.623Z,10.75
2023-04-02T06:04:30.274Z,10.62
2023-04-02T06:07:02.732Z,10.84
2023-04-02T06:09:39.970Z,10.91
2023-04-02T06:12:19.382Z,10.83
2023-04-02T06:14:48.612Z,10.85
2023-04-02T06:17:18.797Z,10.51
2023-04-02T06:19:48.142Z,10.79
2023-04-02T06:22:23.299Z,10.85
2023-04-02T06:25:04.214Z,10.81
2023-04-02T06:27:39.547Z,10.80
2023-04-02T06:30:18.351Z,10.90
2023-04-02T06:32:49.041Z,10.92
2023-04-02T06:35:18.369Z,10.81
2023-04-02T06:37:56.202Z,10.68
2023-04-02T06:40:40.772Z,10.52
2023-04-02T06:43:36.291Z,10.63
2023-04-02T06:46:37.338Z,10.81
2023-04-02T06:49:21.361Z,11.04
2023-04-02T06:51:54.535Z,11.19
2023-04-02T06:54:23.894Z,11.21
2023-04-02T06:56:58.203Z,10.97
2023-04-02T06:59:36.259Z,11.18
2023-04-02T07:02:23.543Z,10.89
2023-04-02T07:04:59.692Z,11.10
2023-04-02T07:07:33.226Z,11.23
2023-04-02T07:10:08.660Z,10.91
2023-04-02T07:12:38.077Z,10.70
2023-04-02T07:15:08.265Z,11.03
2023-04-02T07:17:36.764Z,11.28
2023-04-02T07:20:07.349Z,11.30
2023-04-02T07:22:35.280Z,11.42
2023-04-02T07:25:06.546Z,11.26
2023-04-02T07:27:35.931Z,11.47
2023-04-02T07:30:07.833Z,11.66
2023-04-02T07:32:36.675Z,11.58
2023-04-02T07:35:05.080Z,11.03
2023-04-02T07:37:33.444Z,10.94
2023-04-02T07:40:01.353Z,11.12
2023-04-02T07:42:30.224Z,11.17
2023-04-02T07:44:58.176Z,11.25
2023-04-02T07:47:27.716Z,11.58
2023-04-02T07:49:56.332Z,11.42
2023-04-02T07:52:24.872Z,11.26
2023-04-02T07:54:53.423Z,11.57
2023-04-02T07:57:21.423Z,11.73
2023-04-02T07:59:49.408Z,11.52
2023-04-02T08:02:21.554Z,11.59
2023-04-02T08:04:53.153Z,11.49
2023-04-02T08:07:25.216Z,11.48
2023-04-02T08:09:54.519Z,11.33
2023-04-02T08:12:23.813Z,11.67
2023-04-02T08:14:51.978Z,11.44
2023-04-02T08:17:21.550Z,11.43
2023-04-02T08:19:55.161Z,11.53
2023-04-02T08:22:24.356Z,12.04
2023-04-02T08:24:53.740Z,12.17
2023-04-02T08:27:23.569Z,11.29
2023-04-02T08:29:54.110Z,11.89
2023-04-02T08:32:24.507Z,11.97
2023-04-02T08:34:53.888Z,12.10
2023-04-02T08:37:22.638Z,12.35
2023-04-02T08:39:51.555Z,12.35
2023-04-02T08:42:27.248Z,12.02
2023-04-02T08:45:24.211Z,12.27
2023-04-02T08:47:57.771Z,12.18
2023-04-02T08:50:34.007Z,12.44
2023-04-02T08:53:05.863Z,12.21
2023-04-02T08:55:43.321Z,11.40
2023-04-02T08:58:25.883Z,11.71
2023-04-02T09:00:56.561Z,11.63
2023-04-02T09:03:31.043Z,12.33
2023-04-02T09:06:04.056Z,11.80
2023-04-02T09:08:35.753Z,12.40
2023-04-02T09:11:09.570Z,12.57
2023-04-02T09:13:46.401Z,12.81
2023-04-02T09:16:17.056Z,13.09
2023-04-02T09:18:49.393Z,12.55
2023-04-02T09:21:37.941Z,12.88
2023-04-02T09:24:06.464Z,12.47
2023-04-02T09:26:35.217Z,12.80
2023-04-02T09:29:25.888Z,13.11
2023-04-02T09:32:03.694Z,13.31
2023-04-02T09:34:33.674Z,12.72
2023-04-02T09:37:10.684Z,12.80
2023-04-02T09:39:39.393Z,13.06
2023-04-02T09:42:08.848Z,12.28
2023-04-02T09:44:37.932Z,12.86
2023-04-02T09:47:26.981Z,12.41
2023-04-02T09:49:56.621Z,12.99
2023-04-02T09:52:31.280Z,13.52
2023-04-02T09:55:20.156Z,13.05
2023-04-02T09:57:49.859Z,13.87
2023-04-02T10:00:31.225Z,14.05
2023-04-02T10:03:07.260Z,14.21
2023-04-02T10:08:17.010Z,13.45
2023-04-02T10:10:49.513Z,13.80
2023-04-02T10:13:23.808Z,14.50
2023-04-02T10:15:56.451Z,14.78
2023-04-02T10:18:37.566Z,14.10
2023-04-02T10:21:07.434Z,13.99
2023-04-02T10:23:38.096Z,14.20
2023-04-02T10:26:20.374Z,14.55
2023-04-02T10:29:09.378Z,13.94
2023-04-02T10:31:47.766Z,14.66
2023-04-02T10:34:24.738Z,14.85
2023-04-02T10:36:56.125Z,14.56
2023-04-02T10:39:32.521Z,13.68
2023-04-02T10:42:11.907Z,14.20
2023-04-02T10:44:56.671Z,13.98
2023-04-02T10:47:38.254Z,14.08
2023-04-02T10:50:27.867Z,14.59
2023-04-02T10:53:03.464Z,14.79
2023-04-02T10:55:39.679Z,14.60
2023-04-02T10:58:16.746Z,14.57
2023-04-02T11:00:47.780Z,14.74
2023-04-02T11:03:25.685Z,15.38
2023-04-02T11:05:58.468Z,15.07
2023-04-02T11:08:30.761Z,13.76
2023-04-02T11:11:04.921Z,13.59
2023-04-02T11:13:40.748Z,14.50
2023-04-02T11:16:11.077Z,14.30
2023-04-02T11:18:39.908Z,13.84
2023-04-02T11:21:08.919Z,13.31
2023-04-02T11:23:57.946Z,13.68
2023-04-02T11:26:53.538Z,13.96
2023-04-02T11:29:26.038Z,14.08
2023-04-02T11:32:16.891Z,14.45
2023-04-02T11:35:21.035Z,14.06
2023-04-02T11:37:50.104Z,13.48
2023-04-02T11:40:50.584Z,14.23
2023-04-02T11:44:00.576Z,14.27
2023-04-02T11:46:46.242Z,13.61
2023-04-02T11:49:42.085Z,13.30
2023-04-02T11:52:30.625Z,14.36
2023-04-02T11:55:06.457Z,14.57
2023-04-02T11:58:03.754Z,14.25
2023-04-02T12:00:56.160Z,14.08
2023-04-02T12:03:44.836Z,14.44
2023-04-02T12:06:19.159Z,13.49
2023-04-02T12:08:58.313Z,14.61
2023-04-02T12:11:35.146Z,14.42
2023-04-02T12:14:08.351Z,15.06
2023-04-02T12:16:40.207Z,15.30
2023-04-02T12:19:10.573Z,14.74
2023-04-02T12:21:40.121Z,14.89
2023-04-02T12:24:19.787Z,15.17
2023-04-02T12:26:50.661Z,13.95
2023-04-02T12:29:25.119Z,14.38
2023-04-02T12:31:56.199Z,15.11
2023-04-02T12:34:26.791Z,15.12
2023-04-02T12:36:57.096Z,14.52
2023-04-02T12:39:28.119Z,13.82
2023-04-02T12:41:58.061Z,13.59
2023-04-02T12:44:28.171Z,13.31
2023-04-02T12:46:59.253Z,13.47
2023-04-02T12:49:34.959Z,13.17
2023-04-02T12:52:05.143Z,13.07
2023-04-02T12:54:38.142Z,13.24
2023-04-02T12:57:23.285Z,13.08
2023-04-02T12:59:51.199Z,12.97
2023-04-02T13:02:24.594Z,12.89
2023-04-02T13:04:55.069Z,12.62
2023-04-02T13:07:25.317Z,12.53
2023-04-02T13:09:58.688Z,12.70
2023-04-02T13:12:30.794Z,12.31
2023-04-02T13:15:00.739Z,12.25
2023-04-02T13:17:45.278Z,11.75
2023-04-02T13:20:36.432Z,11.55
2023-04-02T13:23:27.154Z,11.10
2023-04-02T13:25:56.728Z,11.08
2023-04-02T13:28:28.378Z,11.17
2023-04-02T13:30:58.357Z,11.10
2023-04-02T13:33:30.272Z,11.02
2023-04-02T13:35:58.255Z,10.87
2023-04-02T13:38:29.121Z,10.65
2023-04-02T13:40:57.635Z,10.53
2023-04-02T13:43:27.676Z,10.60
2023-04-02T13:45:59.653Z,10.48
2023-04-02T13:48:29.238Z,10.40
2023-04-02T13:50:57.299Z,10.73
2023-04-02T13:53:32.338Z,10.32
2023-04-02T13:56:01.876Z,10.25
2023-04-02T13:58:32.158Z,10.10
2023-04-02T14:01:01.729Z,10.43
2023-04-02T14:03:32.634Z,10.60
2023-04-02T14:06:08.475Z,10.20
2023-04-02T14:08:52.643Z,10.18
2023-04-02T14:11:34.446Z,10.17
2023-04-02T14:14:26.874Z,10.29
2023-04-02T14:17:11.245Z,10.30
2023-04-02T14:19:54.998Z,10.16
2023-04-02T14:22:38.293Z,10.28
2023-04-02T14:25:13.928Z,10.27
2023-04-02T14:27:49.289Z,10.18
2023-04-02T14:30:24.654Z,10.23
2023-04-02T14:33:01.884Z,10.32
2023-04-02T14:35:36.608Z,10.16
2023-04-02T14:38:17.904Z,10.15
2023-04-02T14:41:01.156Z,10.08
2023-04-02T14:43:45.931Z,10.01
2023-04-02T14:46:37.939Z,9.91
2023-04-02T14:49:22.267Z,10.16
2023-04-02T14:51:55.082Z,10.07
2023-04-02T14:54:33.317Z,9.99
2023-04-02T14:57:11.511Z,10.14
2023-04-02T14:59:54.593Z,9.94
2023-04-02T15:02:35.843Z,9.79
2023-04-02T15:05:12.485Z,9.68
2023-04-02T15:07:51.278Z,9.87
2023-04-02T15:10:28.016Z,9.54
2023-04-02T15:12:58.276Z,9.52
2023-04-02T15:15:40.372Z,9.62
2023-04-02T15:18:15.075Z,9.57
2023-04-02T15:20:52.653Z,9.69
2023-04-02T15:23:37.213Z,9.37
2023-04-02T15:26:22.977Z,9.66
2023-04-02T15:29:30.145Z,9.42
2023-04-02T15:32:06.504Z,9.38
2023-04-02T15:34:41.941Z,9.59
2023-04-02T15:37:20.670Z,9.33
2023-04-02T15:40:04.790Z,9.31
2023-04-02T15:42:38.422Z,9.57
2023-04-02T15:45:23.366Z,9.37
2023-04-02T15:48:09.376Z,9.60
2023-04-02T15:50:52.619Z,9.10
2023-04-02T15:53:33.155Z,9.17
2023-04-02T15:56:17.025Z,9.22
2023-04-02T15:59:08.763Z,8.94
2023-04-02T16:01:48.660Z,8.93
2023-04-02T16:04:44.255Z,8.89
2023-04-02T16:07:38.358Z,8.80
2023-04-02T16:10:14.338Z,8.89
2023-04-02T16:12:43.640Z,8.62
2023-04-02T16:15:18.787Z,8.90
2023-04-02T16:17:52.384Z,8.84
2023-04-02T16:20:25.201Z,9.05
2023-04-02T16:23:00.773Z,9.01
2023-04-02T16:25:32.634Z,8.95
2023-04-02T16:28:14.871Z,9.04
2023-04-02T16:30:51.143Z,8.86
2023-04-02T16:33:33.148Z,8.88
2023-04-02T16:36:18.512Z,8.89
2023-04-02T16:38:58.120Z,8.91
2023-04-02T16:41:36.534Z,8.77
2023-04-02T16:44:16.446Z,8.72
2023-04-02T16:46:55.607Z,8.52
2023-04-02T16:49:32.444Z,8.38
2023-04-02T16:52:15.438Z,8.35
2023-04-02T16:54:52.514Z,8.37
2023-04-02T16:57:32.687Z,8.72
2023-04-02T17:00:13.424Z,8.60
2023-04-02T17:02:55.864Z,8.52
2023-04-02T17:05:32.530Z,8.39
2023-04-02T17:08:15.023Z,8.48
2023-04-02T17:10:50.817Z,8.56
2023-04-02T17:13:29.709Z,8.26
2023-04-02T17:16:07.539Z,8.05
2023-04-02T17:18:37.261Z,8.17
2023-04-02T17:21:08.559Z,8.10
2023-04-02T17:23:56.035Z,8.02
2023-04-02T17:26:29.155Z,8.25
2023-04-02T17:29:00.442Z,8.11
2023-04-02T17:31:35.426Z,8.22
2023-04-02T17:34:17.387Z,8.09
2023-04-02T17:37:00.383Z,7.90
2023-04-02T17:39:37.089Z,7.83
2023-04-02T17:42:15.422Z,7.89
2023-04-02T17:44:54.511Z,7.51
2023-04-02T17:47:26.254Z,7.58
2023-04-02T17:50:17.311Z,7.66
2023-04-02T17:52:53.430Z,7.35
2023-04-02T17:55:31.236Z,7.26
2023-04-02T17:58:11.297Z,7.69
2023-04-02T18:00:53.828Z,7.56
2023-04-02T18:03:36.938Z,7.41
2023-04-02T18:06:13.623Z,7.50
2023-04-02T18:08:53.863Z,7.51
2023-04-02T18:11:33.419Z,7.10
2023-04-02T18:14:19.888Z,7.18
2023-04-02T18:16:58.467Z,7.08
2023-04-02T18:19:37.479Z,7.37
2023-04-02T18:22:14.665Z,7.39
2023-04-02T18:25:02.164Z,7.31
2023-04-02T18:27:54.754Z,7.34
2023-04-02T18:30:30.364Z,7.24
2023-04-02T18:33:28.485Z,7.22
2023-04-02T18:36:06.374Z,7.35
2023-04-02T18:38:45.624Z,7.29
2023-04-02T18:41:31.860Z,6.72
2023-04-02T18:44:14.936Z,6.54
2023-04-02T18:46:50.969Z,6.78
2023-04-02T18:49:34.309Z,6.53
2023-04-02T18:52:14.497Z,6.40
2023-04-02T18:54:46.091Z,6.63
2023-04-02T18:57:23.136Z,6.51
2023-04-02T19:00:04.830Z,6.46
2023-04-02T19:02:51.870Z,6.01
2023-04-02T19:05:27.545Z,6.00
2023-04-02T19:08:04.122Z,6.05
2023-04-02T19:10:35.961Z,6.18
2023-04-02T19:13:09.551Z,5.85
2023-04-02T19:15:45.230Z,5.90
2023-04-02T19:18:23.852Z,5.89
2023-04-02T19:20:58.186Z,5.82
2023-04-02T19:23:42.228Z,5.69
2023-04-02T19:26:14.563Z,5.62
2023-04-02T19:28:49.030Z,5.65
2023-04-02T19:31:30.803Z,5.70
2023-04-02T19:34:11.267Z,5.90
2023-04-02T19:36:47.238Z,5.83
2023-04-02T19:39:53.637Z,5.86
2023-04-02T19:42:35.310Z,5.72
2023-04-02T19:45:03.896Z,5.89
2023-04-02T19:47:32.342Z,5.60
2023-04-02T19:50:00.331Z,5.33
2023-04-02T19:52:28.273Z,5.46
2023-04-02T19:54:57.546Z,5.39
2023-04-02T19:57:25.879Z,5.30
2023-04-02T19:59:53.845Z,5.30
2023-04-02T20:02:21.659Z,5.28
2023-04-02T20:04:49.533Z,5.21
2023-04-02T20:07:17.726Z,5.19
2023-04-02T20:09:45.698Z,5.29
2023-04-02T20:12:14.998Z,5.33
2023-04-02T20:14:43.014Z,5.35
2023-04-02T20:17:11.158Z,5.28
2023-04-02T20:19:39.184Z,5.38
2023-04-02T20:22:07.142Z,5.41
2023-04-02T20:24:35.355Z,5.59
2023-04-02T20:27:03.236Z,5.66
2023-04-02T20:29:32.947Z,5.55
2023-04-02T20:32:00.896Z,5.92
2023-04-02T20:34:29.265Z,5.60
2023-04-02T20:36:57.462Z,5.36
2023-04-02T20:39:25.425Z,5.54
2023-04-02T20:41:53.307Z,5.31
2023-04-02T20:44:21.458Z,5.35
2023-04-02T20:46:51.174Z,5.35
2023-04-02T20:49:19.237Z,5.10
2023-04-02T20:51:48.498Z,5.04
2023-04-02T20:54:16.571Z,5.03
2023-04-02T20:56:44.674Z,5.01
2023-04-02T20:59:13.191Z,5.04
2023-04-02T21:01:41.075Z,5.28
2023-04-02T21:04:10.618Z,5.14
2023-04-02T21:06:41.836Z,5.22
2023-04-02T21:09:15.265Z,5.30
2023-04-02T21:11:43.856Z,5.12
2023-04-02T21:14:11.852Z,4.99
2023-04-02T21:16:42.708Z,5.09
2023-04-02T21:19:14.099Z,5.21
2023-04-02T21:21:44.244Z,5.10
2023-04-02T21:24:12.506Z,5.13
2023-04-02T21:26:42.317Z,5.08
2023-04-02T21:29:12.239Z,5.12
2023-04-02T21:31:41.502Z,5.17
2023-04-02T21:34:13.984Z,5.19
2023-04-02T21:36:45.669Z,5.12
2023-04-02T21:39:18.304Z,5.23
2023-04-02T21:41:50.074Z,5.36
2023-04-02T21:44:20.132Z,5.49
2023-04-02T21:46:52.977Z,5.03
2023-04-02T21:49:23.727Z,4.88
2023-04-02T21:51:53.427Z,4.97
2023-04-02T21:54:21.520Z,5.32
2023-04-02T21:56:50.638Z,5.26
2023-04-02T21:59:18.966Z,5.37
2023-04-02T22:01:49.772Z,5.68
2023-04-02T22:04:23.036Z,5.33
2023-04-02T22:06:53.666Z,5.06
2023-04-02T22:09:24.409Z,5.42
2023-04-02T22:11:54.302Z,5.08
2023-04-02T22:14:23.234Z,5.43
2023-04-02T22:16:52.185Z,5.23
2023-04-02T22:19:22.299Z,5.04
2023-04-02T22:21:50.633Z,5.19
2023-04-02T22:24:22.081Z,5.10
2023-04-02T22:26:50.540Z,5.05
2023-04-02T22:29:18.706Z,5.02
2023-04-02T22:31:49.580Z,5.00
2023-04-02T22:34:17.788Z,5.17
2023-04-02T22:36:45.841Z,4.93
2023-04-02T22:39:15.086Z,4.88
2023-04-02T22:41:45.035Z,4.90
2023-04-02T22:44:16.011Z,4.83
2023-04-02T22:46:44.265Z,4.56
2023-04-02T22:49:19.188Z,4.73
2023-04-02T22:51:48.249Z,4.69
2023-04-02T22:54:16.586Z,5.11
2023-04-02T22:56:46.366Z,4.78
2023-04-02T22:59:14.792Z,4.68
2023-04-02T23:01:43.092Z,4.67
2023-04-02T23:04:11.189Z,4.58
2023-04-02T23:06:40.236Z,4.59
2023-04-02T23:09:08.900Z,4.67
2023-04-02T23:11:36.885Z,4.96
2023-04-02T23:14:06.430Z,4.74
2023-04-02T23:16:35.026Z,4.50
2023-04-02T23:19:03.570Z,4.76
2023-04-02T23:21:31.466Z,4.84
2023-04-02T23:24:00.179Z,4.70
2023-04-02T23:26:31.304Z,4.42
2023-04-02T23:29:00.939Z,4.85
2023-04-02T23:31:30.901Z,4.57
2023-04-02T23:33:59.393Z,4.71
2023-04-02T23:36:30.016Z,4.53
2023-04-02T23:39:01.548Z,4.64
2023-04-02T23:41:31.353Z,4.58
2023-04-02T23:44:01.864Z,4.63
2023-04-02T23:46:32.118Z,4.48
2023-04-02T23:49:01.396Z,4.57
2023-04-02T23:51:31.408Z,4.58
2023-04-02T23:53:59.883Z,4.52
2023-04-02T23:56:28.501Z,4.56
2023-04-02T23:58:56.568Z,4.51
